sensor_id;sensor_type;location;lat;lon;timestamp;pressure;altitude;pressure_sealevel;temperature;humidity
70445;BME280;57902;49.638;11.070;2022-08-06T00:02:18;98747.16;;;18.48;81.29
70445;BME280;57902;49.638;11.070;2022-08-06T00:04:51;98759.22;;;18.34;80.33
70445;BME280;57902;49.638;11.070;2022-08-06T00:07:18;98761.63;;;18.22;80.16
70445;BME280;57902;49.638;11.070;2022-08-06T00:09:51;98770.16;;;18.25;79.45
70445;BME280;57902;49.638;11.070;2022-08-06T00:12:31;98772.75;;;18.25;79.50
70445;BME280;57902;49.638;11.070;2022-08-06T00:15:03;98773.63;;;18.08;79.44
70445;BME280;57902;49.638;11.070;2022-08-06T00:17:41;98783.69;;;17.98;77.61
70445;BME280;57902;49.638;11.070;2022-08-06T00:20:09;98790.09;;;17.93;77.58
70445;BME280;57902;49.638;11.070;2022-08-06T00:22:36;98786.09;;;18.03;75.92
70445;BME280;57902;49.638;11.070;2022-08-06T00:25:03;98791.84;;;17.92;77.15
70445;BME280;57902;49.638;11.070;2022-08-06T00:27:30;98792.22;;;17.84;76.84
70445;BME280;57902;49.638;11.070;2022-08-06T00:30:08;98789.31;;;17.91;77.20
70445;BME280;57902;49.638;11.070;2022-08-06T00:32:43;98797.06;;;17.92;79.83
70445;BME280;57902;49.638;11.070;2022-08-06T00:35:11;98803.97;;;17.93;78.65
70445;BME280;57902;49.638;11.070;2022-08-06T00:37:41;98805.69;;;17.94;76.35
70445;BME280;57902;49.638;11.070;2022-08-06T00:40:28;98791.84;;;17.92;78.63
70445;BME280;57902;49.638;11.070;2022-08-06T00:42:58;98800.72;;;17.88;78.24
70445;BME280;57902;49.638;11.070;2022-08-06T00:45:28;98803.31;;;17.88;78.52
70445;BME280;57902;49.638;11.070;2022-08-06T00:47:57;98803.47;;;17.85;79.26
70445;BME280;57902;49.638;11.070;2022-08-06T00:50:30;98793.06;;;17.85;79.00
70445;BME280;57902;49.638;11.070;2022-08-06T00:52:59;98798.59;;;17.79;80.27
70445;BME280;57902;49.638;11.070;2022-08-06T00:55:27;98797.06;;;17.75;79.08
70445;BME280;57902;49.638;11.070;2022-08-06T00:58:03;98805.09;;;17.70;78.11
70445;BME280;57902;49.638;11.070;2022-08-06T01:00:31;98814.72;;;17.70;78.40
70445;BME280;57902;49.638;11.070;2022-08-06T01:03:04;98819.84;;;17.71;79.85
70445;BME280;57902;49.638;11.070;2022-08-06T01:05:30;98813.63;;;17.74;79.93
70445;BME280;57902;49.638;11.070;2022-08-06T01:08:17;98812.09;;;17.70;79.38
70445;BME280;57902;49.638;11.070;2022-08-06T01:10:44;98815.19;;;17.60;79.84
70445;BME280;57902;49.638;11.070;2022-08-06T01:13:11;98803.06;;;17.59;79.46
70445;BME280;57902;49.638;11.070;2022-08-06T01:15:56;98800.84;;;17.52;77.90
70445;BME280;57902;49.638;11.070;2022-08-06T01:21:45;98801.81;;;17.49;78.41
70445;BME280;57902;49.638;11.070;2022-08-06T01:24:54;98801.19;;;17.44;75.46
70445;BME280;57902;49.638;11.070;2022-08-06T01:27:50;98805.19;;;17.51;75.21
70445;BME280;57902;49.638;11.070;2022-08-06T01:30:20;98807.03;;;17.49;75.09
70445;BME280;57902;49.638;11.070;2022-08-06T01:35:30;98815.16;;;17.43;74.97
70445;BME280;57902;49.638;11.070;2022-08-06T01:38:25;98816.22;;;17.39;73.76
70445;BME280;57902;49.638;11.070;2022-08-06T01:40:54;98820.34;;;17.25;72.85
70445;BME280;57902;49.638;11.070;2022-08-06T01:43:23;98823.13;;;17.22;73.27
70445;BME280;57902;49.638;11.070;2022-08-06T01:46:12;98828.66;;;17.14;74.06
70445;BME280;57902;49.638;11.070;2022-08-06T01:48:42;98824.47;;;17.12;73.37
70445;BME280;57902;49.638;11.070;2022-08-06T01:51:11;98832.28;;;17.12;75.33
70445;BME280;57902;49.638;11.070;2022-08-06T01:54:00;98824.88;;;17.03;73.01
70445;BME280;57902;49.638;11.070;2022-08-06T01:56:35;98828.97;;;17.08;73.23
70445;BME280;57902;49.638;11.070;2022-08-06T01:59:34;98827.34;;;17.06;74.48
70445;BME280;57902;49.638;11.070;2022-08-06T02:02:04;98829.81;;;17.09;74.62
70445;BME280;57902;49.638;11.070;2022-08-06T02:04:35;98835.31;;;17.03;74.54
70445;BME280;57902;49.638;11.070;2022-08-06T02:07:07;98833.63;;;17.02;75.65
70445;BME280;57902;49.638;11.070;2022-08-06T02:09:55;98823.22;;;17.02;75.57
70445;BME280;57902;49.638;11.070;2022-08-06T02:12:24;98828.44;;;17.02;75.27
70445;BME280;57902;49.638;11.070;2022-08-06T02:14:56;98832.09;;;16.98;75.10
70445;BME280;57902;49.638;11.070;2022-08-06T02:17:27;98833.75;;;16.99;76.33
70445;BME280;57902;49.638;11.070;2022-08-06T02:20:16;98837.22;;;16.99;77.34
70445;BME280;57902;49.638;11.070;2022-08-06T02:23:04;98832.94;;;16.98;78.04
70445;BME280;57902;49.638;11.070;2022-08-06T02:25:37;98837.44;;;16.94;77.55
70445;BME280;57902;49.638;11.070;2022-08-06T02:28:07;98844.47;;;16.92;77.04
70445;BME280;57902;49.638;11.070;2022-08-06T02:30:36;98844.72;;;16.86;76.54
70445;BME280;57902;49.638;11.070;2022-08-06T02:33:09;98846.66;;;16.83;76.70
70445;BME280;57902;49.638;11.070;2022-08-06T02:35:49;98844.94;;;16.82;77.35
70445;BME280;57902;49.638;11.070;2022-08-06T02:38:30;98849.34;;;16.79;78.69
70445;BME280;57902;49.638;11.070;2022-08-06T02:41:02;98855.44;;;16.80;78.83
70445;BME280;57902;49.638;11.070;2022-08-06T02:43:35;98858.03;;;16.80;78.47
70445;BME280;57902;49.638;11.070;2022-08-06T02:48:54;98862.75;;;16.72;78.26
70445;BME280;57902;49.638;11.070;2022-08-06T02:51:28;98858.47;;;16.71;78.22
70445;BME280;57902;49.638;11.070;2022-08-06T02:54:23;98861.19;;;16.68;78.14
70445;BME280;57902;49.638;11.070;2022-08-06T02:56:58;98868.09;;;16.69;78.39
70445;BME280;57902;49.638;11.070;2022-08-06T02:59:31;98873.00;;;16.75;77.04
70445;BME280;57902;49.638;11.070;2022-08-06T03:02:06;98864.56;;;16.70;77.33
70445;BME280;57902;49.638;11.070;2022-08-06T03:04:43;98866.53;;;16.65;77.55
70445;BME280;57902;49.638;11.070;2022-08-06T03:07:25;98869.41;;;16.58;78.05
70445;BME280;57902;49.638;11.070;2022-08-06T03:09:55;98872.09;;;16.57;77.52
70445;BME280;57902;49.638;11.070;2022-08-06T03:12:23;98874.75;;;16.55;77.91
70445;BME280;57902;49.638;11.070;2022-08-06T03:14:58;98875.81;;;16.51;78.41
70445;BME280;57902;49.638;11.070;2022-08-06T03:17:38;98879.44;;;16.47;78.09
70445;BME280;57902;49.638;11.070;2022-08-06T03:20:06;98885.53;;;16.48;78.61
70445;BME280;57902;49.638;11.070;2022-08-06T03:22:44;98883.00;;;16.46;78.58
70445;BME280;57902;49.638;11.070;2022-08-06T03:25:15;98885.13;;;16.36;79.40
70445;BME280;57902;49.638;11.070;2022-08-06T03:27:43;98882.75;;;16.32;79.40
70445;BME280;57902;49.638;11.070;2022-08-06T03:30:12;98893.16;;;16.32;80.41
70445;BME280;57902;49.638;11.070;2022-08-06T03:33:04;98892.34;;;16.30;80.04
70445;BME280;57902;49.638;11.070;2022-08-06T03:35:54;98898.50;;;16.29;79.53
70445;BME280;57902;49.638;11.070;2022-08-06T03:38:22;98898.69;;;16.24;79.30
70445;BME280;57902;49.638;11.070;2022-08-06T03:40:55;98897.69;;;16.26;79.54
70445;BME280;57902;49.638;11.070;2022-08-06T03:43:23;98907.47;;;16.21;79.40
70445;BME280;57902;49.638;11.070;2022-08-06T03:46:01;98902.47;;;16.17;79.08
70445;BME280;57902;49.638;11.070;2022-08-06T03:48:32;98910.47;;;16.12;78.79
70445;BME280;57902;49.638;11.070;2022-08-06T03:51:06;98913.56;;;16.00;78.67
70445;BME280;57902;49.638;11.070;2022-08-06T03:53:38;98911.09;;;15.97;78.86
70445;BME280;57902;49.638;11.070;2022-08-06T03:56:16;98916.16;;;16.00;78.36
70445;BME280;57902;49.638;11.070;2022-08-06T03:59:00;98920.34;;;16.04;77.73
70445;BME280;57902;49.638;11.070;2022-08-06T04:01:33;98925.78;;;15.98;78.18
70445;BME280;57902;49.638;11.070;2022-08-06T04:04:15;98913.63;;;15.98;78.08
70445;BME280;57902;49.638;11.070;2022-08-06T04:06:54;98921.09;;;16.06;76.77
70445;BME280;57902;49.638;11.070;2022-08-06T04:09:23;98919.66;;;15.99;76.13
70445;BME280;57902;49.638;11.070;2022-08-06T04:12:10;98925.00;;;15.96;75.83
70445;BME280;57902;49.638;11.070;2022-08-06T04:14:58;98926.69;;;15.97;74.41
70445;BME280;57902;49.638;11.070;2022-08-06T04:17:26;98931.00;;;15.98;74.50
70445;BME280;57902;49.638;11.070;2022-08-06T04:19:58;98932.84;;;15.94;73.49
70445;BME280;57902;49.638;11.070;2022-08-06T04:22:25;98940.72;;;15.92;73.78
70445;BME280;57902;49.638;11.070;2022-08-06T04:25:12;98939.75;;;15.95;73.42
70445;BME280;57902;49.638;11.070;2022-08-06T04:27:41;98943.25;;;15.94;71.90
70445;BME280;57902;49.638;11.070;2022-08-06T04:30:22;98945.78;;;15.96;71.69
70445;BME280;57902;49.638;11.070;2022-08-06T04:32:51;98955.16;;;16.00;71.10
70445;BME280;57902;49.638;11.070;2022-08-06T04:35:28;98958.50;;;16.03;70.00
70445;BME280;57902;49.638;11.070;2022-08-06T04:38:17;98966.25;;;16.05;69.88
70445;BME280;57902;49.638;11.070;2022-08-06T04:40:53;98967.28;;;16.01;69.10
70445;BME280;57902;49.638;11.070;2022-08-06T04:43:20;98975.53;;;16.10;69.64
70445;BME280;57902;49.638;11.070;2022-08-06T04:45:48;98975.44;;;16.14;68.30
70445;BME280;57902;49.638;11.070;2022-08-06T04:48:35;98984.69;;;16.19;67.06
70445;BME280;57902;49.638;11.070;2022-08-06T04:51:12;98985.50;;;16.21;66.95
70445;BME280;57902;49.638;11.070;2022-08-06T04:53:58;98993.19;;;16.24;68.64
70445;BME280;57902;49.638;11.070;2022-08-06T04:56:25;98991.22;;;16.30;67.43
70445;BME280;57902;49.638;11.070;2022-08-06T04:59:02;98999.22;;;16.25;65.67
70445;BME280;57902;49.638;11.070;2022-08-06T05:01:29;98994.75;;;16.29;65.63
70445;BME280;57902;49.638;11.070;2022-08-06T05:04:16;99006.47;;;16.39;65.41
70445;BME280;57902;49.638;11.070;2022-08-06T05:07:09;99005.94;;;16.51;65.85
70445;BME280;57902;49.638;11.070;2022-08-06T05:09:39;99009.56;;;16.68;65.01
70445;BME280;57902;49.638;11.070;2022-08-06T05:12:36;99011.28;;;16.89;64.03
70445;BME280;57902;49.638;11.070;2022-08-06T05:15:41;99011.91;;;17.15;61.78
70445;BME280;57902;49.638;11.070;2022-08-06T05:18:32;99014.28;;;17.58;60.43
70445;BME280;57902;49.638;11.070;2022-08-06T05:21:21;99016.97;;;17.94;58.59
70445;BME280;57902;49.638;11.070;2022-08-06T05:24:09;99019.91;;;18.41;57.92
70445;BME280;57902;49.638;11.070;2022-08-06T05:26:36;99025.88;;;18.78;57.09
70445;BME280;57902;49.638;11.070;2022-08-06T05:29:03;99027.59;;;19.12;55.24
70445;BME280;57902;49.638;11.070;2022-08-06T05:31:35;99031.22;;;19.75;52.73
70445;BME280;57902;49.638;11.070;2022-08-06T05:34:10;99024.59;;;20.16;52.29
70445;BME280;57902;49.638;11.070;2022-08-06T05:36:37;99026.59;;;20.26;52.55
70445;BME280;57902;49.638;11.070;2022-08-06T05:39:04;99027.75;;;20.37;51.45
70445;BME280;57902;49.638;11.070;2022-08-06T05:41:33;99035.28;;;20.73;50.39
70445;BME280;57902;49.638;11.070;2022-08-06T05:44:04;99030.03;;;21.02;48.72
70445;BME280;57902;49.638;11.070;2022-08-06T05:46:35;99035.28;;;21.17;47.53
70445;BME280;57902;49.638;11.070;2022-08-06T05:49:07;99039.41;;;21.35;47.45
70445;BME280;57902;49.638;11.070;2022-08-06T05:52:03;99036.00;;;21.47;46.31
70445;BME280;57902;49.638;11.070;2022-08-06T05:57:26;99050.31;;;22.40;43.52
70445;BME280;57902;49.638;11.070;2022-08-06T06:00:10;99051.25;;;22.11;44.89
70445;BME280;57902;49.638;11.070;2022-08-06T06:02:59;99048.88;;;21.94;43.66
70445;BME280;57902;49.638;11.070;2022-08-06T06:05:28;99045.66;;;21.47;43.74
70445;BME280;57902;49.638;11.070;2022-08-06T06:08:15;99053.34;;;21.21;45.05
70445;BME280;57902;49.638;11.070;2022-08-06T06:11:05;99061.31;;;21.63;45.69
70445;BME280;57902;49.638;11.070;2022-08-06T06:13:36;99051.81;;;22.02;45.80
70445;BME280;57902;49.638;11.070;2022-08-06T06:19:13;99065.75;;;22.44;43.33
70445;BME280;57902;49.638;11.070;2022-08-06T06:21:51;99063.41;;;22.12;43.93
70445;BME280;57902;49.638;11.070;2022-08-06T06:24:41;99067.66;;;22.42;43.57
70445;BME280;57902;49.638;11.070;2022-08-06T06:27:26;99068.53;;;22.56;43.11
70445;BME280;57902;49.638;11.070;2022-08-06T06:30:16;99072.06;;;23.20;41.37
70445;BME280;57902;49.638;11.070;2022-08-06T06:36:15;99081.22;;;23.90;38.78
70445;BME280;57902;49.638;11.070;2022-08-06T06:39:38;99073.19;;;24.16;38.56
70445;BME280;57902;49.638;11.070;2022-08-06T06:41:53;99072.88;;;24.56;38.32
70445;BME280;57902;49.638;11.070;2022-08-06T06:47:27;99082.84;;;24.28;38.11
70445;BME280;57902;49.638;11.070;2022-08-06T06:50:17;99086.69;;;25.07;35.27
70445;BME280;57902;49.638;11.070;2022-08-06T06:52:48;99089.31;;;24.95;36.93
70445;BME280;57902;49.638;11.070;2022-08-06T06:55:36;99091.69;;;24.98;35.51
70445;BME280;57902;49.638;11.070;2022-08-06T06:58:36;99095.13;;;25.46;34.70
70445;BME280;57902;49.638;11.070;2022-08-06T07:01:11;99093.91;;;25.61;33.13
70445;BME280;57902;49.638;11.070;2022-08-06T07:03:55;99096.75;;;24.90;35.34
70445;BME280;57902;49.638;11.070;2022-08-06T07:06:23;99094.97;;;25.02;34.75
70445;BME280;57902;49.638;11.070;2022-08-06T07:09:15;99099.91;;;24.47;35.81
70445;BME280;57902;49.638;11.070;2022-08-06T07:12:04;99099.34;;;24.55;35.01
70445;BME280;57902;49.638;11.070;2022-08-06T07:14:46;99101.69;;;24.11;35.36
70445;BME280;57902;49.638;11.070;2022-08-06T07:17:25;99104.84;;;24.52;35.57
70445;BME280;57902;49.638;11.070;2022-08-06T07:20:27;99101.34;;;24.75;32.92
70445;BME280;57902;49.638;11.070;2022-08-06T07:22:57;99109.50;;;24.72;33.98
70445;BME280;57902;49.638;11.070;2022-08-06T07:25:47;99110.69;;;24.44;33.38
70445;BME280;57902;49.638;11.070;2022-08-06T07:28:21;99107.41;;;24.89;33.12
70445;BME280;57902;49.638;11.070;2022-08-06T07:30:55;99104.88;;;24.87;34.51
70445;BME280;57902;49.638;11.070;2022-08-06T07:33:29;99109.47;;;25.19;34.10
70445;BME280;57902;49.638;11.070;2022-08-06T07:36:18;99111.06;;;25.44;32.24
70445;BME280;57902;49.638;11.070;2022-08-06T07:38:56;99113.47;;;25.59;33.28
70445;BME280;57902;49.638;11.070;2022-08-06T07:41:26;99108.75;;;25.96;32.31
70445;BME280;57902;49.638;11.070;2022-08-06T07:44:13;99116.56;;;25.75;32.96
70445;BME280;57902;49.638;11.070;2022-08-06T07:46:48;99114.34;;;26.26;32.00
70445;BME280;57902;49.638;11.070;2022-08-06T07:52:32;99120.91;;;25.31;32.51
70445;BME280;57902;49.638;11.070;2022-08-06T07:55:01;99118.63;;;25.72;32.07
70445;BME280;57902;49.638;11.070;2022-08-06T07:57:45;99127.03;;;25.43;32.80
70445;BME280;57902;49.638;11.070;2022-08-06T08:00:25;99115.78;;;24.58;33.06
70445;BME280;57902;49.638;11.070;2022-08-06T08:02:54;99118.66;;;24.55;33.64
70445;BME280;57902;49.638;11.070;2022-08-06T08:06:03;99128.94;;;24.83;33.56
70445;BME280;57902;49.638;11.070;2022-08-06T08:08:49;99128.19;;;25.16;32.27
70445;BME280;57902;49.638;11.070;2022-08-06T08:11:18;99121.09;;;25.05;32.42
70445;BME280;57902;49.638;11.070;2022-08-06T08:14:04;99122.31;;;25.12;33.37
70445;BME280;57902;49.638;11.070;2022-08-06T08:16:33;99123.69;;;25.41;32.88
70445;BME280;57902;49.638;11.070;2022-08-06T08:19:34;99122.97;;;25.39;31.76
70445;BME280;57902;49.638;11.070;2022-08-06T08:22:12;99131.56;;;25.18;31.72
70445;BME280;57902;49.638;11.070;2022-08-06T08:24:44;99128.59;;;25.34;32.22
70445;BME280;57902;49.638;11.070;2022-08-06T08:27:20;99136.38;;;25.24;33.92
70445;BME280;57902;49.638;11.070;2022-08-06T08:29:51;99136.59;;;25.21;32.32
70445;BME280;57902;49.638;11.070;2022-08-06T08:32:23;99126.31;;;25.63;32.69
70445;BME280;57902;49.638;11.070;2022-08-06T08:34:50;99131.34;;;25.89;31.80
70445;BME280;57902;49.638;11.070;2022-08-06T08:37:20;99126.94;;;25.67;31.79
70445;BME280;57902;49.638;11.070;2022-08-06T08:39:47;99127.50;;;25.82;31.24
70445;BME280;57902;49.638;11.070;2022-08-06T08:42:18;99131.13;;;25.47;33.03
70445;BME280;57902;49.638;11.070;2022-08-06T08:44:58;99126.69;;;25.70;32.31
70445;BME280;57902;49.638;11.070;2022-08-06T08:47:25;99128.38;;;25.60;31.69
70445;BME280;57902;49.638;11.070;2022-08-06T08:50:14;99122.88;;;24.93;32.08
70445;BME280;57902;49.638;11.070;2022-08-06T08:52:44;99126.44;;;24.57;32.74
70445;BME280;57902;49.638;11.070;2022-08-06T08:55:15;99136.09;;;24.21;33.77
70445;BME280;57902;49.638;11.070;2022-08-06T08:58:05;99130.25;;;24.53;34.46
70445;BME280;57902;49.638;11.070;2022-08-06T09:00:52;99120.03;;;25.08;33.85
70445;BME280;57902;49.638;11.070;2022-08-06T09:03:20;99123.69;;;25.41;33.04
70445;BME280;57902;49.638;11.070;2022-08-06T09:05:48;99122.59;;;25.32;31.44
70445;BME280;57902;49.638;11.070;2022-08-06T09:08:19;99116.66;;;25.06;33.01
70445;BME280;57902;49.638;11.070;2022-08-06T09:11:06;99119.13;;;25.43;32.64
70445;BME280;57902;49.638;11.070;2022-08-06T09:13:53;99113.34;;;25.72;32.14
70445;BME280;57902;49.638;11.070;2022-08-06T09:16:26;99111.06;;;26.01;32.27
70445;BME280;57902;49.638;11.070;2022-08-06T09:18:58;99122.38;;;25.58;31.84
70445;BME280;57902;49.638;11.070;2022-08-06T09:21:25;99117.56;;;25.63;32.95
70445;BME280;57902;49.638;11.070;2022-08-06T09:23:54;99125.63;;;25.39;32.46
70445;BME280;57902;49.638;11.070;2022-08-06T09:26:23;99113.56;;;25.23;31.14
70445;BME280;57902;49.638;11.070;2022-08-06T09:29:20;99103.81;;;25.01;32.32
70445;BME280;57902;49.638;11.070;2022-08-06T09:31:59;99113.09;;;24.71;33.42
70445;BME280;57902;49.638;11.070;2022-08-06T09:34:37;99109.31;;;24.87;31.56
70445;BME280;57902;49.638;11.070;2022-08-06T09:37:07;99111.25;;;25.07;31.65
70445;BME280;57902;49.638;11.070;2022-08-06T09:39:39;99105.56;;;24.67;32.13
70445;BME280;57902;49.638;11.070;2022-08-06T09:42:40;99105.44;;;24.68;32.50
70445;BME280;57902;49.638;11.070;2022-08-06T09:45:12;99109.88;;;24.43;33.46
70445;BME280;57902;49.638;11.070;2022-08-06T09:47:47;99107.22;;;24.68;32.71
70445;BME280;57902;49.638;11.070;2022-08-06T09:50:37;99123.03;;;24.68;32.69
70445;BME280;57902;49.638;11.070;2022-08-06T09:53:08;99101.88;;;24.80;31.95
70445;BME280;57902;49.638;11.070;2022-08-06T09:55:41;99104.97;;;24.50;33.02
70445;BME280;57902;49.638;11.070;2022-08-06T09:58:08;99102.22;;;24.52;34.21
70445;BME280;57902;49.638;11.070;2022-08-06T10:00:37;99107.56;;;24.63;35.35
70445;BME280;57902;49.638;11.070;2022-08-06T10:03:07;99098.00;;;24.73;30.77
70445;BME280;57902;49.638;11.070;2022-08-06T10:06:08;99101.72;;;24.46;33.29
70445;BME280;57902;49.638;11.070;2022-08-06T10:08:36;99093.41;;;24.40;32.45
70445;BME280;57902;49.638;11.070;2022-08-06T10:11:03;99095.56;;;24.35;33.37
70445;BME280;57902;49.638;11.070;2022-08-06T10:13:33;99100.97;;;24.33;34.30
70445;BME280;57902;49.638;11.070;2022-08-06T10:16:20;99103.78;;;24.54;32.69
70445;BME280;57902;49.638;11.070;2022-08-06T10:18:55;99113.63;;;24.04;32.99
70445;BME280;57902;49.638;11.070;2022-08-06T10:21:32;99106.84;;;24.13;33.42
70445;BME280;57902;49.638;11.070;2022-08-06T10:24:12;99105.25;;;24.34;32.41
70445;BME280;57902;49.638;11.070;2022-08-06T10:26:52;99107.56;;;24.39;31.63
70445;BME280;57902;49.638;11.070;2022-08-06T10:29:20;99101.06;;;24.32;32.10
70445;BME280;57902;49.638;11.070;2022-08-06T10:31:48;99089.25;;;24.37;33.32
70445;BME280;57902;49.638;11.070;2022-08-06T10:34:26;99090.00;;;24.51;33.39
70445;BME280;57902;49.638;11.070;2022-08-06T10:37:01;99089.84;;;24.76;31.82
70445;BME280;57902;49.638;11.070;2022-08-06T10:39:55;99090.97;;;24.85;31.92
70445;BME280;57902;49.638;11.070;2022-08-06T10:42:35;99092.53;;;24.88;31.42
70445;BME280;57902;49.638;11.070;2022-08-06T10:45:08;99088.63;;;24.69;31.17
70445;BME280;57902;49.638;11.070;2022-08-06T10:47:44;99098.13;;;24.72;31.36
70445;BME280;57902;49.638;11.070;2022-08-06T10:50:32;99102.91;;;24.42;31.14
70445;BME280;57902;49.638;11.070;2022-08-06T10:53:15;99097.97;;;24.38;31.49
70445;BME280;57902;49.638;11.070;2022-08-06T10:56:04;99095.16;;;24.28;31.78
70445;BME280;57902;49.638;11.070;2022-08-06T10:58:35;99088.13;;;24.28;31.63
70445;BME280;57902;49.638;11.070;2022-08-06T11:04:33;99084.28;;;24.33;30.87
70445;BME280;57902;49.638;11.070;2022-08-06T11:13:35;99076.16;;;24.36;31.37
70445;BME280;57902;49.638;11.070;2022-08-06T11:16:23;99080.53;;;24.48;30.78
70445;BME280;57902;49.638;11.070;2022-08-06T11:19:07;99074.59;;;24.33;31.61
70445;BME280;57902;49.638;11.070;2022-08-06T11:24:27;99072.47;;;24.14;32.09
70445;BME280;57902;49.638;11.070;2022-08-06T11:26:54;99071.38;;;24.05;31.25
70445;BME280;57902;49.638;11.070;2022-08-06T11:30:13;99067.94;;;23.92;31.26
70445;BME280;57902;49.638;11.070;2022-08-06T11:32:50;99067.00;;;23.80;31.26
70445;BME280;57902;49.638;11.070;2022-08-06T11:35:48;99058.91;;;24.07;31.66
70445;BME280;57902;49.638;11.070;2022-08-06T11:41:30;99072.09;;;24.43;29.77
70445;BME280;57902;49.638;11.070;2022-08-06T11:44:18;99058.69;;;24.46;30.10
70445;BME280;57902;49.638;11.070;2022-08-06T11:47:09;99056.69;;;24.50;31.16
70445;BME280;57902;49.638;11.070;2022-08-06T11:52:38;99048.38;;;24.67;29.94
70445;BME280;57902;49.638;11.070;2022-08-06T11:55:04;99059.41;;;24.72;29.76
70445;BME280;57902;49.638;11.070;2022-08-06T11:57:34;99054.25;;;24.71;30.38
70445;BME280;57902;49.638;11.070;2022-08-06T12:00:19;99064.94;;;24.80;30.24
70445;BME280;57902;49.638;11.070;2022-08-06T12:02:49;99053.69;;;24.54;29.97
70445;BME280;57902;49.638;11.070;2022-08-06T12:08:19;99049.69;;;24.61;29.64
70445;BME280;57902;49.638;11.070;2022-08-06T12:11:26;99048.97;;;24.71;29.81
70445;BME280;57902;49.638;11.070;2022-08-06T12:14:04;99050.25;;;25.01;28.49
70445;BME280;57902;49.638;11.070;2022-08-06T12:16:53;99047.47;;;25.02;28.93
70445;BME280;57902;49.638;11.070;2022-08-06T12:19:25;99041.09;;;25.05;29.13
70445;BME280;57902;49.638;11.070;2022-08-06T12:21:52;99048.53;;;25.22;28.68
70445;BME280;57902;49.638;11.070;2022-08-06T12:24:23;99043.06;;;25.37;27.38
70445;BME280;57902;49.638;11.070;2022-08-06T12:27:11;99039.72;;;25.35;27.86
70445;BME280;57902;49.638;11.070;2022-08-06T12:29:38;99042.34;;;25.35;29.05
70445;BME280;57902;49.638;11.070;2022-08-06T12:34:53;99035.47;;;25.21;27.39
70445;BME280;57902;49.638;11.070;2022-08-06T12:37:36;99032.38;;;25.04;27.83
70445;BME280;57902;49.638;11.070;2022-08-06T12:40:15;99027.66;;;24.74;27.86
70445;BME280;57902;49.638;11.070;2022-08-06T12:45:40;99019.66;;;24.98;27.89
70445;BME280;57902;49.638;11.070;2022-08-06T12:48:27;99015.09;;;25.00;28.38
70445;BME280;57902;49.638;11.070;2022-08-06T12:51:10;99010.66;;;25.12;28.17
70445;BME280;57902;49.638;11.070;2022-08-06T12:53:46;99013.41;;;25.10;27.94
70445;BME280;57902;49.638;11.070;2022-08-06T12:56:14;99019.06;;;25.06;27.51
70445;BME280;57902;49.638;11.070;2022-08-06T12:58:59;99021.06;;;24.79;27.82
70445;BME280;57902;49.638;11.070;2022-08-06T13:01:28;99017.47;;;24.80;27.61
70445;BME280;57902;49.638;11.070;2022-08-06T13:04:16;99002.75;;;24.89;27.18
70445;BME280;57902;49.638;11.070;2022-08-06T13:06:45;99007.88;;;24.68;28.31
70445;BME280;57902;49.638;11.070;2022-08-06T13:09:15;99003.91;;;24.62;28.26
70445;BME280;57902;49.638;11.070;2022-08-06T13:11:43;99011.59;;;24.66;28.48
70445;BME280;57902;49.638;11.070;2022-08-06T13:14:17;99011.63;;;24.77;27.56
70445;BME280;57902;49.638;11.070;2022-08-06T13:16:47;99005.47;;;24.76;28.45
70445;BME280;57902;49.638;11.070;2022-08-06T13:19:22;98994.91;;;24.65;28.17
70445;BME280;57902;49.638;11.070;2022-08-06T13:22:05;98983.81;;;24.73;28.49
70445;BME280;57902;49.638;11.070;2022-08-06T13:24:34;98980.44;;;24.82;28.54
70445;BME280;57902;49.638;11.070;2022-08-06T13:27:01;98977.31;;;24.88;28.87
70445;BME280;57902;49.638;11.070;2022-08-06T13:29:33;98978.53;;;24.95;28.28
70445;BME280;57902;49.638;11.070;2022-08-06T13:32:24;98977.91;;;25.14;28.07
70445;BME280;57902;49.638;11.070;2022-08-06T13:35:01;98981.38;;;25.26;27.57
70445;BME280;57902;49.638;11.070;2022-08-06T13:37:50;98974.19;;;25.28;27.72
70445;BME280;57902;49.638;11.070;2022-08-06T13:40:44;98986.44;;;25.07;27.67
70445;BME280;57902;49.638;11.070;2022-08-06T13:43:40;98983.56;;;24.98;28.04
70445;BME280;57902;49.638;11.070;2022-08-06T13:46:22;98982.97;;;24.95;27.48
70445;BME280;57902;49.638;11.070;2022-08-06T13:48:59;98976.84;;;24.94;26.98
70445;BME280;57902;49.638;11.070;2022-08-06T13:51:27;98963.06;;;24.91;26.79
70445;BME280;57902;49.638;11.070;2022-08-06T13:53:55;98974.09;;;24.73;27.60
70445;BME280;57902;49.638;11.070;2022-08-06T13:56:23;98976.72;;;24.85;27.67
70445;BME280;57902;49.638;11.070;2022-08-06T13:58:57;98970.13;;;24.68;27.45
70445;BME280;57902;49.638;11.070;2022-08-06T14:01:23;98975.16;;;24.59;27.50
70445;BME280;57902;49.638;11.070;2022-08-06T14:04:10;98966.81;;;24.41;28.54
70445;BME280;57902;49.638;11.070;2022-08-06T14:06:39;98965.50;;;24.47;29.17
70445;BME280;57902;49.638;11.070;2022-08-06T14:09:09;98960.47;;;24.44;29.44
70445;BME280;57902;49.638;11.070;2022-08-06T14:11:51;98962.88;;;24.47;28.96
70445;BME280;57902;49.638;11.070;2022-08-06T14:14:20;98964.66;;;24.35;30.25
70445;BME280;57902;49.638;11.070;2022-08-06T14:16:48;98967.78;;;24.52;28.81
70445;BME280;57902;49.638;11.070;2022-08-06T14:19:16;98957.00;;;24.55;28.75
70445;BME280;57902;49.638;11.070;2022-08-06T14:22:02;98967.38;;;24.69;28.33
70445;BME280;57902;49.638;11.070;2022-08-06T14:24:29;98957.25;;;24.52;28.61
70445;BME280;57902;49.638;11.070;2022-08-06T14:27:03;98961.94;;;24.48;28.45
70445;BME280;57902;49.638;11.070;2022-08-06T14:29:42;98951.13;;;24.40;29.03
70445;BME280;57902;49.638;11.070;2022-08-06T14:32:29;98951.78;;;24.19;28.44
70445;BME280;57902;49.638;11.070;2022-08-06T14:34:56;98956.84;;;24.34;28.30